Time;durP1;ratioP1;P1;durP2;ratioP2;P2;SDS_P1;SDS_P2;PMS_P1;PMS_P2;Temp;Humidity;BMP_temperature;BMP_pressure;BME280_temperature;BME280_humidity;BME280_pressure;Samples;Min_cycle;Max_cycle;Signal;HPM_P1;HPM_P2
2024/04/05 00:01:05;;;;;;;;;;;;;;;16.67;51.26;100866.53;5020755;28;1059;-47
2024/04/05 00:03:31;;;;;;;;;;;;;;;16.39;51.68;100856.09;5037999;28;1060;-51
2024/04/05 00:05:57;;;;;;;;;;;;;;;16.16;52.11;100870.97;5038206;28;1203;-52
2024/04/05 00:08:24;;;;;;;;;;;;;;;16.07;51.77;100869.78;5038120;28;1127;-52
2024/04/05 00:10:50;;;;;;;;;;;;;;;16.01;51.81;100865.78;5037955;28;1008;-52
2024/04/05 00:13:16;;;;;;;;;;;;;;;16.26;52.37;100860.56;5037691;28;1056;-53
2024/04/05 00:15:41;;;;;;;;;;;;;;;17.64;49.43;100862.22;5037546;28;899;-55
2024/04/05 00:18:07;;;;;;;;;;;;;;;17.13;50.31;100866.88;5037146;28;1897;-51
2024/04/05 00:20:32;;;;;;;;;;;;;;;16.55;51.90;100864.78;5038235;28;1203;-53
2024/04/05 00:22:58;;;;;;;;;;;;;;;16.37;51.74;100862.44;5037635;28;1075;-51
2024/04/05 00:25:23;;;;;;;;;;;;;;;16.24;51.67;100865.13;5037811;28;1051;-51
2024/04/05 00:27:49;;;;;;;;;;;;;;;16.04;52.17;100867.34;5037244;28;1846;-50
2024/04/05 00:30:14;;;;;;;;;;;;;;;17.49;50.01;100875.72;5037798;28;1096;-50
2024/04/05 00:32:40;;;;;;;;;;;;;;;17.11;50.31;100876.75;5037917;28;1027;-52
2024/04/05 00:35:06;;;;;;;;;;;;;;;16.62;51.14;100872.19;5037921;28;1092;-53
2024/04/05 00:37:31;;;;;;;;;;;;;;;16.33;51.90;100872.44;5037657;28;1972;-54
2024/04/05 00:39:57;;;;;;;;;;;;;;;16.22;51.81;100867.88;5037271;28;943;-51
2024/04/05 00:42:23;;;;;;;;;;;;;;;16.55;51.88;100867.44;5037686;28;1090;-50
2024/04/05 00:44:48;;;;;;;;;;;;;;;17.56;49.38;100872.59;5037319;28;1070;-53
2024/04/05 00:47:14;;;;;;;;;;;;;;;16.79;51.14;100874.59;5037596;28;1118;-54
2024/04/05 00:49:39;;;;;;;;;;;;;;;16.46;51.63;100871.59;5037169;28;1047;-53
2024/04/05 00:52:05;;;;;;;;;;;;;;;16.25;51.81;100865.00;5037237;28;1075;-51
2024/04/05 00:54:31;;;;;;;;;;;;;;;16.07;51.68;100864.50;5019543;28;1095;-50
2024/04/05 00:56:56;;;;;;;;;;;;;;;16.37;52.28;100878.38;5037221;28;1906;-51
2024/04/05 00:59:22;;;;;;;;;;;;;;;17.74;49.30;100867.69;5019249;28;2606;-50
2024/04/05 01:01:47;;;;;;;;;;;;;;;17.04;50.29;100871.00;5019842;28;1067;-53
2024/04/05 01:04:13;;;;;;;;;;;;;;;16.57;51.48;100876.13;5037132;28;839;-53
2024/04/05 01:06:38;;;;;;;;;;;;;;;16.35;51.83;100878.50;5037464;28;1079;-52
2024/04/05 01:09:04;;;;;;;;;;;;;;;16.17;51.92;100880.63;5037046;28;1176;-55
2024/04/05 01:11:30;;;;;;;;;;;;;;;16.10;51.89;100877.53;5037259;28;1072;-50
2024/04/05 01:13:55;;;;;;;;;;;;;;;16.91;51.12;100884.34;5036837;28;1102;-55
2024/04/05 01:16:21;;;;;;;;;;;;;;;17.66;49.14;100878.06;5036841;28;1908;-49
2024/04/05 01:18:47;;;;;;;;;;;;;;;16.80;51.12;100887.75;5036712;28;1260;-50
2024/04/05 01:21:12;;;;;;;;;;;;;;;16.46;51.74;100888.38;5035000;28;1234;-50
2024/04/05 01:23:41;;;;;;;;;;;;;;;16.24;52.12;100881.91;5052127;28;1028;-51
2024/04/05 01:26:07;;;;;;;;;;;;;;;16.12;52.09;100878.28;5018254;28;1123;-51
2024/04/05 01:28:33;;;;;;;;;;;;;;;16.34;52.18;100884.75;5036341;28;1619;-51
2024/04/05 01:30:58;;;;;;;;;;;;;;;17.74;48.97;100886.31;5036446;28;1147;-50
2024/04/05 01:33:24;;;;;;;;;;;;;;;16.99;50.55;100892.59;5036549;28;1064;-51
2024/04/05 01:35:50;;;;;;;;;;;;;;;16.51;51.46;100885.38;5036192;28;1085;-53
2024/04/05 01:38:15;;;;;;;;;;;;;;;16.23;52.05;100890.81;5036358;28;1909;-53
2024/04/05 01:40:41;;;;;;;;;;;;;;;16.11;52.09;100891.66;5036227;28;1000;-52
2024/04/05 01:43:06;;;;;;;;;;;;;;;17.23;50.52;100883.81;5036312;28;1068;-53
2024/04/05 01:45:32;;;;;;;;;;;;;;;17.22;49.84;100890.09;5036121;28;981;-54
2024/04/05 01:47:57;;;;;;;;;;;;;;;16.57;51.46;100884.94;5018722;28;1008;-50
2024/04/05 01:50:23;;;;;;;;;;;;;;;16.42;51.48;100883.34;5036021;28;1020;-49
2024/04/05 01:52:48;;;;;;;;;;;;;;;16.16;51.71;100884.25;5035861;28;897;-52
2024/04/05 01:55:14;;;;;;;;;;;;;;;16.15;52.29;100888.69;5036020;28;1107;-52
2024/04/05 01:57:40;;;;;;;;;;;;;;;17.58;49.68;100883.97;5032914;28;1905;-49
2024/04/05 02:00:06;;;;;;;;;;;;;;;17.24;50.09;100892.66;5032528;28;1029;-48
2024/04/05 02:02:37;;;;;;;;;;;;;;;16.62;51.16;100882.81;5035800;28;976;-49
2024/04/05 02:05:03;;;;;;;;;;;;;;;16.37;51.35;100883.69;5036216;28;847;-48
2024/04/05 02:07:28;;;;;;;;;;;;;;;16.16;51.70;100881.59;5030841;28;1178;-47
2024/04/05 02:09:54;;;;;;;;;;;;;;;16.03;51.73;100879.75;5032816;28;994;-50
2024/04/05 02:12:20;;;;;;;;;;;;;;;16.35;52.38;100888.28;5035544;28;1071;-48
2024/04/05 02:14:46;;;;;;;;;;;;;;;17.72;49.34;100888.22;5035866;28;1083;-49
2024/04/05 02:17:11;;;;;;;;;;;;;;;17.10;50.13;100885.69;5018064;28;1910;-49
2024/04/05 02:19:37;;;;;;;;;;;;;;;16.54;51.58;100885.16;5035356;28;1219;-53
2024/04/05 02:22:02;;;;;;;;;;;;;;;16.38;51.79;100883.56;5035971;28;1222;-49
2024/04/05 02:24:28;;;;;;;;;;;;;;;16.17;51.46;100891.22;5035978;28;1136;-51
2024/04/05 02:26:53;;;;;;;;;;;;;;;15.99;51.76;100888.03;5035837;28;1064;-50
2024/04/05 02:29:19;;;;;;;;;;;;;;;16.58;51.85;100894.59;5035640;28;1940;-53
2024/04/05 02:31:45;;;;;;;;;;;;;;;17.83;49.11;100887.44;5035844;28;1156;-52
2024/04/05 02:34:10;;;;;;;;;;;;;;;16.97;50.71;100899.84;5035496;28;1067;-52
2024/04/05 02:36:36;;;;;;;;;;;;;;;16.55;51.37;100897.47;5035519;28;1910;-51
2024/04/05 02:39:03;;;;;;;;;;;;;;;16.30;51.61;100895.72;5035648;28;1122;-49
2024/04/05 02:41:28;;;;;;;;;;;;;;;16.20;51.76;100898.16;5035796;28;1157;-51
2024/04/05 02:43:54;;;;;;;;;;;;;;;16.07;52.04;100901.63;5035318;28;1059;-50
2024/04/05 02:46:19;;;;;;;;;;;;;;;17.52;49.84;100897.75;5035664;28;1027;-51
2024/04/05 02:48:45;;;;;;;;;;;;;;;17.31;49.81;100907.19;5035619;28;1004;-52
2024/04/05 02:51:11;;;;;;;;;;;;;;;16.76;50.97;100900.44;5035835;28;1143;-51
2024/04/05 02:53:36;;;;;;;;;;;;;;;16.44;51.68;100900.91;5035285;28;898;-50
2024/04/05 02:56:02;;;;;;;;;;;;;;;16.25;51.74;100906.63;5035654;28;1918;-51
2024/04/05 02:58:27;;;;;;;;;;;;;;;16.74;51.70;100905.00;5035155;28;1968;-54
2024/04/05 03:00:56;;;;;;;;;;;;;;;17.88;48.73;100909.22;5035434;28;1183;-50
2024/04/05 03:03:22;;;;;;;;;;;;;;;16.99;50.75;100913.00;5035573;28;1036;-52
2024/04/05 03:05:47;;;;;;;;;;;;;;;16.62;51.27;100913.81;5035229;28;902;-52
2024/04/05 03:08:13;;;;;;;;;;;;;;;16.39;51.68;100913.66;5035240;28;1063;-47
2024/04/05 03:10:39;;;;;;;;;;;;;;;16.30;51.19;100914.28;5035437;28;1059;-50
2024/04/05 03:13:04;;;;;;;;;;;;;;;16.09;52.03;100914.81;5035507;28;1025;-50
2024/04/05 03:15:30;;;;;;;;;;;;;;;17.43;49.97;100917.88;5035472;28;1012;-50
2024/04/05 03:17:55;;;;;;;;;;;;;;;17.29;49.80;100924.22;5034585;28;1972;-51
2024/04/05 03:20:21;;;;;;;;;;;;;;;16.72;51.25;100919.34;5035598;28;1079;-51
2024/04/05 03:22:46;;;;;;;;;;;;;;;16.45;51.48;100920.34;5035139;28;1124;-47
2024/04/05 03:25:12;;;;;;;;;;;;;;;16.25;51.67;100923.41;5035051;28;1175;-53
2024/04/05 03:27:38;;;;;;;;;;;;;;;17.13;50.67;100928.81;5035188;28;1730;-51
2024/04/05 03:30:03;;;;;;;;;;;;;;;17.56;49.31;100928.44;5035256;28;1093;-51
2024/04/05 03:32:32;;;;;;;;;;;;;;;16.83;50.93;100926.56;5035151;28;1013;-51
2024/04/05 03:34:58;;;;;;;;;;;;;;;16.49;51.30;100929.78;5035644;28;1031;-50
2024/04/05 03:37:23;;;;;;;;;;;;;;;16.27;51.58;100932.13;5035096;28;1898;-49
2024/04/05 03:39:52;;;;;;;;;;;;;;;16.15;51.71;100927.66;5035007;28;1103;-49
2024/04/05 03:42:21;;;;;;;;;;;;;;;16.47;52.05;100943.16;5035137;28;1027;-49
2024/04/05 03:44:46;;;;;;;;;;;;;;;17.79;49.00;100934.72;5035277;28;1053;-50
2024/04/05 03:47:12;;;;;;;;;;;;;;;16.97;50.61;100949.47;5035237;28;1172;-46
2024/04/05 03:49:38;;;;;;;;;;;;;;;16.57;51.31;100947.81;5036548;28;1181;-55
2024/04/05 03:52:04;;;;;;;;;;;;;;;16.28;51.63;100956.88;5038047;28;1427;-48
2024/04/05 03:54:30;;;;;;;;;;;;;;;16.17;51.74;100962.91;5038642;28;1143;-51
2024/04/05 03:56:55;;;;;;;;;;;;;;;17.04;50.87;100961.38;5038163;28;1905;-45
2024/04/05 03:59:21;;;;;;;;;;;;;;;17.55;49.35;100961.34;5038499;28;2595;-50
2024/04/05 04:01:49;;;;;;;;;;;;;;;16.89;50.84;100968.63;5038389;28;1088;-51
2024/04/05 04:04:14;;;;;;;;;;;;;;;16.50;51.36;100968.66;5037968;28;984;-46
2024/04/05 04:06:40;;;;;;;;;;;;;;;16.77;49.75;100968.53;5038180;28;1052;-54
2024/04/05 04:09:07;;;;;;;;;;;;;;;17.36;49.81;100974.19;5038065;28;1184;-54
2024/04/05 04:11:33;;;;;;;;;;;;;;;16.04;51.98;100976.16;5038319;28;984;-52
2024/04/05 04:13:58;;;;;;;;;;;;;;;15.57;50.97;100994.22;5038331;28;1131;-51
2024/04/05 04:16:24;;;;;;;;;;;;;;;15.46;50.15;100987.81;5037594;28;1898;-53
2024/04/05 04:18:50;;;;;;;;;;;;;;;16.62;51.44;100990.84;5038068;28;1342;-56
2024/04/05 04:21:16;;;;;;;;;;;;;;;15.78;51.17;100991.97;5037891;28;1079;-52
2024/04/05 04:23:41;;;;;;;;;;;;;;;16.39;51.82;101003.91;5038196;28;1163;-50
2024/04/05 04:26:07;;;;;;;;;;;;;;;16.34;50.99;101004.22;5037608;28;1091;-50
2024/04/05 04:28:32;;;;;;;;;;;;;;;15.83;50.26;100999.63;5037556;28;1797;-51
2024/04/05 04:30:59;;;;;;;;;;;;;;;17.38;50.16;101001.50;5037812;28;1004;-46
2024/04/05 04:33:25;;;;;;;;;;;;;;;16.09;51.33;101008.53;5037749;28;1151;-50
2024/04/05 04:35:51;;;;;;;;;;;;;;;15.88;49.98;101003.66;5037437;28;1149;-45
2024/04/05 04:38:16;;;;;;;;;;;;;;;15.64;48.96;101012.28;5037573;28;1909;-48
2024/04/05 04:40:42;;;;;;;;;;;;;;;16.97;50.56;101013.25;5037800;28;1082;-49
2024/04/05 04:43:08;;;;;;;;;;;;;;;15.99;50.87;101013.63;5037881;28;1053;-52
2024/04/05 04:45:33;;;;;;;;;;;;;;;15.75;49.35;101014.25;5037566;28;1032;-49
2024/04/05 04:47:59;;;;;;;;;;;;;;;16.80;50.21;101015.28;5037395;28;1015;-44
2024/04/05 04:50:24;;;;;;;;;;;;;;;15.95;50.10;101014.72;5037312;28;1071;-46
2024/04/05 04:52:50;;;;;;;;;;;;;;;15.74;49.03;101022.28;5037334;28;1238;-47
2024/04/05 04:55:16;;;;;;;;;;;;;;;15.63;48.16;101021.19;5008486;28;2191;-46
2024/04/05 04:57:42;;;;;;;;;;;;;;;15.54;47.77;101022.66;5039312;28;1971;-45
2024/04/05 05:00:08;;;;;;;;;;;;;;;16.22;49.52;101031.59;5037496;28;1083;-45
2024/04/05 05:02:33;;;;;;;;;;;;;;;15.69;48.81;101016.44;5035963;28;1326;-47
2024/04/05 05:04:59;;;;;;;;;;;;;;;16.56;49.61;101028.47;5036211;28;1306;-47
2024/04/05 05:07:25;;;;;;;;;;;;;;;16.14;49.39;101030.31;5037571;28;1028;-50
2024/04/05 05:09:50;;;;;;;;;;;;;;;15.79;48.69;101026.38;5037371;28;1064;-49
2024/04/05 05:12:16;;;;;;;;;;;;;;;15.58;47.78;101028.59;5041978;28;2297;-49
2024/04/05 05:14:41;;;;;;;;;;;;;;;15.35;47.76;101038.03;5047690;28;1950;-50
2024/04/05 05:17:07;;;;;;;;;;;;;;;16.45;49.17;101037.19;5036752;28;1981;-47
2024/04/05 05:19:32;;;;;;;;;;;;;;;16.20;49.02;101041.50;5039508;28;1896;-46
2024/04/05 05:21:58;;;;;;;;;;;;;;;15.76;48.95;101037.19;5035708;28;1822;-47
2024/04/05 05:24:24;;;;;;;;;;;;;;;17.24;48.46;101046.84;5037466;28;2209;-50
2024/04/05 05:26:49;;;;;;;;;;;;;;;16.14;49.32;101042.72;5035904;28;1055;-51
2024/04/05 05:29:15;;;;;;;;;;;;;;;15.84;48.88;101044.63;5035158;28;885;-50
2024/04/05 05:31:40;;;;;;;;;;;;;;;15.69;47.86;101043.81;5036261;28;1055;-53
2024/04/05 05:34:07;;;;;;;;;;;;;;;16.93;48.47;101047.19;5036400;28;1112;-50
2024/04/05 05:36:33;;;;;;;;;;;;;;;15.96;49.38;101048.28;5036014;28;1910;-53
2024/04/05 05:39:00;;;;;;;;;;;;;;;15.67;48.43;101056.31;5036451;28;1123;-53
2024/04/05 05:41:26;;;;;;;;;;;;;;;15.64;47.42;101048.56;5035638;28;1116;-49
2024/04/05 05:43:52;;;;;;;;;;;;;;;16.57;48.74;101057.56;5035418;28;841;-49
2024/04/05 05:46:17;;;;;;;;;;;;;;;15.96;49.03;101053.59;5036078;28;1048;-47
2024/04/05 05:48:43;;;;;;;;;;;;;;;16.30;49.13;101055.00;5036135;28;1017;-50
2024/04/05 05:51:08;;;;;;;;;;;;;;;16.61;49.09;101050.25;5034012;28;1058;-49
2024/04/05 05:53:34;;;;;;;;;;;;;;;16.01;48.91;101055.97;5035847;28;2638;-45
2024/04/05 05:56:00;;;;;;;;;;;;;;;15.84;48.35;101055.25;5034969;28;987;-48
2024/04/05 05:58:25;;;;;;;;;;;;;;;15.70;47.29;101053.47;5028460;28;1910;-50
2024/04/05 06:00:51;;;;;;;;;;;;;;;15.62;46.73;101051.31;5033264;28;1376;-45
2024/04/05 06:03:17;;;;;;;;;;;;;;;15.48;46.75;101054.00;5035105;28;1057;-51
2024/04/05 06:05:49;;;;;;;;;;;;;;;15.43;46.26;101057.78;5024826;28;1344;-51
2024/04/05 06:08:14;;;;;;;;;;;;;;;16.02;47.57;101045.25;5035481;28;1351;-49
2024/04/05 06:10:40;;;;;;;;;;;;;;;16.05;48.45;101048.66;5035388;28;1282;-51
2024/04/05 06:13:05;;;;;;;;;;;;;;;15.71;48.08;101044.56;5035242;28;1100;-48
2024/04/05 06:15:31;;;;;;;;;;;;;;;16.55;48.63;101045.38;5035479;28;1219;-49
2024/04/05 06:17:56;;;;;;;;;;;;;;;16.22;48.70;101045.72;5035468;28;1975;-50
2024/04/05 06:20:22;;;;;;;;;;;;;;;15.77;48.52;101049.47;5035512;28;985;-52
2024/04/05 06:22:48;;;;;;;;;;;;;;;15.96;48.72;101058.03;5034644;28;1753;-49
2024/04/05 06:25:13;;;;;;;;;;;;;;;16.60;48.24;101062.69;5035488;28;1071;-53
2024/04/05 06:27:39;;;;;;;;;;;;;;;15.97;48.47;101068.56;5033885;28;1301;-52
2024/04/05 06:30:07;;;;;;;;;;;;;;;15.76;47.85;101063.69;5024754;28;1092;-51
2024/04/05 06:32:33;;;;;;;;;;;;;;;16.90;48.08;101065.97;5018681;28;1135;-45
2024/04/05 06:34:59;;;;;;;;;;;;;;;15.91;48.67;101059.19;5035396;28;1090;-48
2024/04/05 06:37:26;;;;;;;;;;;;;;;15.72;47.92;101061.31;5034808;28;1985;-48
2024/04/05 06:39:54;;;;;;;;;;;;;;;15.58;47.55;101068.34;5035126;28;1029;-47
2024/04/05 06:42:20;;;;;;;;;;;;;;;17.10;47.54;101077.91;5031096;28;1122;-52
2024/04/05 06:44:49;;;;;;;;;;;;;;;16.07;48.65;101074.13;5035361;28;1032;-54
2024/04/05 06:47:15;;;;;;;;;;;;;;;15.67;48.05;101074.88;5035230;28;1071;-49
2024/04/05 06:49:40;;;;;;;;;;;;;;;15.63;47.53;101073.41;5035572;28;1051;-53
2024/04/05 06:52:06;;;;;;;;;;;;;;;16.52;48.04;101080.94;5035128;28;1139;-57
2024/04/05 06:54:32;;;;;;;;;;;;;;;15.77;48.25;101080.44;5035149;28;2203;-53
2024/04/05 06:56:58;;;;;;;;;;;;;;;15.67;47.84;101080.19;5035335;28;1913;-54
2024/04/05 06:59:23;;;;;;;;;;;;;;;15.50;47.21;101079.47;5035181;28;1298;-60
2024/04/05 07:01:52;;;;;;;;;;;;;;;17.07;47.33;101086.06;5034687;28;1160;-47
2024/04/05 07:04:23;;;;;;;;;;;;;;;15.99;48.25;101093.22;5035463;28;1072;-51
2024/04/05 07:06:52;;;;;;;;;;;;;;;15.68;47.92;101092.53;5035039;28;1118;-47
2024/04/05 07:09:20;;;;;;;;;;;;;;;15.55;47.24;101095.94;5034845;28;1321;-52
2024/04/05 07:11:45;;;;;;;;;;;;;;;15.84;47.49;101103.00;5034946;28;1071;-48
2024/04/05 07:14:12;;;;;;;;;;;;;;;16.53;47.84;101103.91;5035017;28;1055;-50
2024/04/05 07:16:37;;;;;;;;;;;;;;;15.91;48.51;101103.44;5035030;28;1980;-47
2024/04/05 07:19:03;;;;;;;;;;;;;;;17.82;47.06;101110.13;5034903;28;1061;-48
2024/04/05 07:21:28;;;;;;;;;;;;;;;16.64;48.85;101100.50;5035659;28;1387;-46
2024/04/05 07:23:55;;;;;;;;;;;;;;;16.13;48.37;101108.22;5036335;28;1321;-51
2024/04/05 07:26:20;;;;;;;;;;;;;;;15.91;47.95;101112.25;5039549;28;1036;-49
2024/04/05 07:28:46;;;;;;;;;;;;;;;15.79;47.15;101107.75;5039198;28;1122;-56
2024/04/05 07:31:13;;;;;;;;;;;;;;;15.71;47.13;101100.28;5039157;28;898;-49
2024/04/05 07:33:39;;;;;;;;;;;;;;;16.67;47.94;101097.63;5032759;28;1104;-47
2024/04/05 07:36:05;;;;;;;;;;;;;;;16.01;48.08;101098.44;5038688;28;1227;-50
2024/04/05 07:38:31;;;;;;;;;;;;;;;15.71;47.86;101102.06;5039130;28;1899;-52
2024/04/05 07:41:05;;;;;;;;;;;;;;;15.68;47.18;101095.19;5033852;28;1075;-52
2024/04/05 07:43:31;;;;;;;;;;;;;;;15.54;46.72;101096.03;5038968;28;912;-51
2024/04/05 07:45:56;;;;;;;;;;;;;;;15.62;47.13;101093.75;5039295;28;1155;-47
2024/04/05 07:48:22;;;;;;;;;;;;;;;16.54;47.74;101092.31;5038406;28;1054;-45
2024/04/05 07:50:48;;;;;;;;;;;;;;;15.90;48.32;101088.47;5038369;28;1046;-50
2024/04/05 07:53:13;;;;;;;;;;;;;;;15.72;47.64;101080.75;5037984;28;1144;-53
2024/04/05 07:55:39;;;;;;;;;;;;;;;17.02;47.08;101081.09;5038559;28;825;-46
2024/04/05 07:58:05;;;;;;;;;;;;;;;16.05;48.18;101088.47;5033731;28;1904;-49
2024/04/05 08:00:31;;;;;;;;;;;;;;;15.91;47.39;101077.75;5038529;28;1063;-44
2024/04/05 08:02:56;;;;;;;;;;;;;;;15.63;47.56;101079.53;5037724;28;1091;-48
2024/04/05 08:05:22;;;;;;;;;;;;;;;15.81;47.52;101087.28;5020417;28;1123;-50
2024/04/05 08:07:47;;;;;;;;;;;;;;;16.64;47.75;101081.91;5038568;28;885;-46
2024/04/05 08:10:13;;;;;;;;;;;;;;;15.94;48.26;101089.13;5038165;28;1024;-49
2024/04/05 08:12:39;;;;;;;;;;;;;;;15.85;48.34;101080.81;5038673;28;1167;-54
2024/04/05 08:15:06;;;;;;;;;;;;;;;16.57;48.00;101084.13;5038518;28;1052;-48
2024/04/05 08:17:31;;;;;;;;;;;;;;;16.01;48.39;101087.81;5038074;28;1978;-52
2024/04/05 08:19:57;;;;;;;;;;;;;;;15.91;47.58;101084.88;5038036;28;915;-50
2024/04/05 08:22:22;;;;;;;;;;;;;;;15.71;47.08;101084.38;5038105;28;1195;-50
2024/04/05 08:24:48;;;;;;;;;;;;;;;15.54;47.04;101086.28;5038022;28;1130;-53
2024/04/05 08:27:14;;;;;;;;;;;;;;;15.58;46.38;101086.09;5037832;28;1298;-49
2024/04/05 08:29:40;;;;;;;;;;;;;;;16.70;47.46;101080.66;5038155;28;1198;-51
2024/04/05 08:32:06;;;;;;;;;;;;;;;16.00;47.92;101088.75;5037628;28;941;-47
2024/04/05 08:34:32;;;;;;;;;;;;;;;17.00;47.50;101088.31;5037302;28;1115;-46
2024/04/05 08:37:03;;;;;;;;;;;;;;;17.28;47.55;101087.38;5037078;28;1910;-48
2024/04/05 08:39:28;;;;;;;;;;;;;;;16.25;48.80;101085.34;5037906;28;1124;-48
2024/04/05 08:42:02;;;;;;;;;;;;;;;16.05;48.10;101086.66;5037805;28;1125;-46
2024/04/05 08:44:28;;;;;;;;;;;;;;;15.90;47.64;101091.97;5022803;28;1082;-46
2024/04/05 08:46:53;;;;;;;;;;;;;;;15.81;46.95;101094.38;4999407;28;1353;-46
2024/04/05 08:49:22;;;;;;;;;;;;;;;17.06;47.56;101094.16;5031892;28;1285;-47
2024/04/05 08:51:47;;;;;;;;;;;;;;;16.13;48.75;101100.25;5042076;28;1079;-47
2024/04/05 08:54:13;;;;;;;;;;;;;;;15.93;48.06;101098.91;5031865;28;1358;-48
2024/04/05 08:56:38;;;;;;;;;;;;;;;15.81;47.43;101094.38;5037260;28;1906;-47
2024/04/05 08:59:04;;;;;;;;;;;;;;;16.45;47.95;101098.25;5024154;28;1119;-48
2024/04/05 09:01:29;;;;;;;;;;;;;;;16.31;48.07;101102.69;5036442;28;1112;-49
2024/04/05 09:03:55;;;;;;;;;;;;;;;15.90;48.22;101091.13;5025912;28;1424;-48
2024/04/05 09:06:21;;;;;;;;;;;;;;;15.85;47.65;101090.59;5025885;28;1413;-50
2024/04/05 09:08:48;;;;;;;;;;;;;;;15.63;47.55;101084.84;5023218;28;1309;-48
2024/04/05 09:11:22;;;;;;;;;;;;;;;15.66;46.65;101086.44;5020024;28;1158;-50
2024/04/05 09:14:01;;;;;;;;;;;;;;;17.11;47.01;101079.63;5024787;28;1512;-51
2024/04/05 09:16:27;;;;;;;;;;;;;;;16.07;48.07;101079.44;5023421;28;1906;-51
2024/04/05 09:19:01;;;;;;;;;;;;;;;15.81;47.99;101079.31;5031010;28;1416;-47
2024/04/05 09:21:27;;;;;;;;;;;;;;;15.64;47.68;101083.03;5037582;28;1238;-45
2024/04/05 09:23:52;;;;;;;;;;;;;;;15.62;46.91;101087.59;5036863;28;1025;-47
2024/04/05 09:26:27;;;;;;;;;;;;;;;16.05;47.60;101085.81;5036730;28;1012;-47
2024/04/05 09:29:02;;;;;;;;;;;;;;;16.42;47.74;101093.97;5037012;28;1044;-50
2024/04/05 09:31:31;;;;;;;;;;;;;;;15.93;48.05;101080.34;5036845;28;1055;-47
2024/04/05 09:34:25;;;;;;;;;;;;;;;15.79;47.67;101084.72;5036792;28;1113;-47
2024/04/05 09:36:51;;;;;;;;;;;;;;;16.74;47.18;101084.78;5034135;28;1903;-51
2024/04/05 09:39:18;;;;;;;;;;;;;;;15.96;48.10;101087.22;5035535;28;1278;-48
2024/04/05 09:41:46;;;;;;;;;;;;;;;15.86;47.55;101090.47;5019639;28;1325;-49
2024/04/05 09:44:12;;;;;;;;;;;;;;;15.71;47.37;101088.81;5035788;28;1009;-48
2024/04/05 09:46:37;;;;;;;;;;;;;;;15.62;47.03;101084.94;5035368;28;1043;-48
2024/04/05 09:49:03;;;;;;;;;;;;;;;15.57;46.61;101082.56;5052036;28;1340;-48
2024/04/05 09:51:45;;;;;;;;;;;;;;;16.46;47.35;101099.94;5019720;28;1122;-47
2024/04/05 09:54:12;;;;;;;;;;;;;;;16.01;47.71;101101.94;5022431;28;1131;-48
2024/04/05 09:56:40;;;;;;;;;;;;;;;15.72;47.54;101096.66;5018299;28;1969;-46
2024/04/05 09:59:10;;;;;;;;;;;;;;;16.15;47.97;101102.81;5033076;28;1401;-50
2024/04/05 10:01:37;;;;;;;;;;;;;;;16.60;47.50;101104.34;5018427;28;1078;-51
2024/04/05 10:04:03;;;;;;;;;;;;;;;16.00;47.94;101100.22;5019036;28;1093;-51
2024/04/05 10:06:38;;;;;;;;;;;;;;;15.78;47.72;101104.22;5051275;28;1072;-50
2024/04/05 10:09:15;;;;;;;;;;;;;;;16.82;47.37;101098.41;5040809;28;1095;-45
2024/04/05 10:11:41;;;;;;;;;;;;;;;16.07;47.80;101091.84;5024510;28;1123;-49
2024/04/05 10:14:08;;;;;;;;;;;;;;;15.81;47.74;101097.03;5036304;28;996;-50
2024/04/05 10:16:34;;;;;;;;;;;;;;;15.77;47.24;101094.56;5047680;28;1897;-49
2024/04/05 10:19:08;;;;;;;;;;;;;;;15.67;46.82;101101.41;5035617;28;1119;-48
2024/04/05 10:21:34;;;;;;;;;;;;;;;16.92;47.34;101087.13;5023430;28;1036;-47
2024/04/05 10:23:59;;;;;;;;;;;;;;;16.50;47.93;101096.13;5035744;28;1202;-47
2024/04/05 10:26:25;;;;;;;;;;;;;;;16.05;48.43;101094.59;5036046;28;1107;-46
2024/04/05 10:29:06;;;;;;;;;;;;;;;15.98;47.36;101093.28;5035701;28;1016;-48
2024/04/05 10:31:32;;;;;;;;;;;;;;;15.81;46.82;101104.97;5017922;28;1203;-49
2024/04/05 10:33:59;;;;;;;;;;;;;;;15.72;46.67;101090.50;5018149;28;1047;-47
2024/04/05 10:36:24;;;;;;;;;;;;;;;16.50;47.09;101098.78;5035804;28;1967;-46
2024/04/05 10:38:50;;;;;;;;;;;;;;;16.01;47.86;101104.59;5051156;28;1029;-49
2024/04/05 10:41:16;;;;;;;;;;;;;;;17.12;47.43;101101.72;5033980;28;1483;-50
2024/04/05 10:43:43;;;;;;;;;;;;;;;16.30;48.47;101089.50;5022655;28;1077;-46
2024/04/05 10:46:10;;;;;;;;;;;;;;;16.03;47.96;101099.19;5035379;28;1079;-45
2024/04/05 10:48:35;;;;;;;;;;;;;;;15.83;47.63;101085.34;5018088;28;1117;-46
2024/04/05 10:51:03;;;;;;;;;;;;;;;15.72;47.10;101078.09;5035615;28;1085;-46
2024/04/05 10:53:29;;;;;;;;;;;;;;;15.74;46.77;101070.03;5035598;28;1089;-47
2024/04/05 10:55:55;;;;;;;;;;;;;;;15.57;46.90;101073.75;5035781;28;1207;-48
2024/04/05 10:58:21;;;;;;;;;;;;;;;15.58;46.56;101084.28;5018891;28;1977;-47
2024/04/05 11:00:46;;;;;;;;;;;;;;;15.55;46.42;101071.22;5039834;28;1067;-51
2024/04/05 11:03:16;;;;;;;;;;;;;;;16.85;46.80;101081.41;5039933;28;1144;-48
2024/04/05 11:05:42;;;;;;;;;;;;;;;16.00;47.80;101081.66;5022175;28;1051;-48
2024/04/05 11:08:10;;;;;;;;;;;;;;;15.78;47.60;101075.03;5039341;28;992;-48
2024/04/05 11:10:36;;;;;;;;;;;;;;;15.59;47.39;101074.53;5039258;28;1116;-44
2024/04/05 11:13:15;;;;;;;;;;;;;;;15.61;46.89;101078.78;5039669;28;1052;-48
2024/04/05 11:15:41;;;;;;;;;;;;;;;15.49;46.94;101092.81;5039524;28;1198;-48
2024/04/05 11:18:07;;;;;;;;;;;;;;;15.75;47.27;101085.84;5039322;28;1910;-48
2024/04/05 11:20:35;;;;;;;;;;;;;;;16.49;47.06;101081.16;5038914;28;1096;-45
2024/04/05 11:23:03;;;;;;;;;;;;;;;15.94;47.40;101092.63;5035359;28;1287;-43
2024/04/05 11:25:29;;;;;;;;;;;;;;;15.77;46.92;101089.28;5039361;28;1139;-47
2024/04/05 11:27:55;;;;;;;;;;;;;;;15.59;46.79;101091.28;5039271;28;1098;-48
2024/04/05 11:30:20;;;;;;;;;;;;;;;15.54;46.33;101104.84;5038700;28;1131;-42
2024/04/05 11:32:46;;;;;;;;;;;;;;;16.87;46.95;101098.94;5038535;28;1103;-49
2024/04/05 11:35:12;;;;;;;;;;;;;;;16.01;47.74;101091.31;5038816;28;1337;-51
2024/04/05 11:37:38;;;;;;;;;;;;;;;15.82;47.31;101098.72;5038910;28;1911;-48
2024/04/05 11:40:05;;;;;;;;;;;;;;;15.65;47.27;101087.38;5038760;28;1091;-53
2024/04/05 11:42:32;;;;;;;;;;;;;;;17.07;46.99;101099.38;5038797;28;1052;-52
2024/04/05 11:44:57;;;;;;;;;;;;;;;16.17;47.92;101098.25;5038833;28;1071;-52
2024/04/05 11:47:23;;;;;;;;;;;;;;;15.83;47.88;101095.13;5038504;28;1045;-49
2024/04/05 11:49:48;;;;;;;;;;;;;;;15.75;47.26;101096.47;5039046;28;1076;-54
2024/04/05 11:52:14;;;;;;;;;;;;;;;16.87;47.13;101103.41;5054049;28;1119;-56
2024/04/05 11:54:40;;;;;;;;;;;;;;;15.97;48.24;101092.44;5038977;28;1036;-53
2024/04/05 11:57:05;;;;;;;;;;;;;;;15.91;47.50;101098.16;5038142;28;1906;-51
2024/04/05 11:59:31;;;;;;;;;;;;;;;15.84;47.14;101088.88;5037475;28;979;-51
2024/04/05 12:01:56;;;;;;;;;;;;;;;16.97;47.12;101093.84;5037599;28;1218;-52
2024/04/05 12:04:23;;;;;;;;;;;;;;;16.23;47.98;101091.72;5038706;28;1180;-49
2024/04/05 12:06:50;;;;;;;;;;;;;;;16.02;47.50;101092.16;5038552;28;1059;-48
2024/04/05 12:09:16;;;;;;;;;;;;;;;15.83;46.97;101085.34;5038171;28;930;-51
2024/04/05 12:11:45;;;;;;;;;;;;;;;15.77;46.56;101083.97;5037921;28;1099;-52
2024/04/05 12:14:10;;;;;;;;;;;;;;;15.78;46.77;101080.34;5038655;28;1198;-53
2024/04/05 12:16:36;;;;;;;;;;;;;;;16.55;47.27;101080.72;5038069;28;1910;-51
2024/04/05 12:19:01;;;;;;;;;;;;;;;16.00;47.41;101080.78;5037573;28;1095;-53
2024/04/05 12:21:27;;;;;;;;;;;;;;;16.63;47.66;101074.91;5037940;28;883;-57
2024/04/05 12:23:53;;;;;;;;;;;;;;;16.35;47.90;101082.91;5035398;28;1569;-53
2024/04/05 12:26:19;;;;;;;;;;;;;;;16.02;47.63;101069.13;5028874;28;1309;-55
2024/04/05 12:28:45;;;;;;;;;;;;;;;15.84;47.30;101079.13;5038661;28;1119;-53
2024/04/05 12:31:12;;;;;;;;;;;;;;;15.84;46.75;101076.47;5038125;28;1044;-49
2024/04/05 12:33:38;;;;;;;;;;;;;;;15.63;46.98;101087.47;5037945;28;873;-57
2024/04/05 12:36:04;;;;;;;;;;;;;;;16.84;47.11;101085.00;5028367;28;1132;-47
2024/04/05 12:38:38;;;;;;;;;;;;;;;16.05;47.85;101077.84;5031985;28;1906;-45
2024/04/05 12:41:07;;;;;;;;;;;;;;;15.94;47.22;101074.06;5036516;28;1225;-50
2024/04/05 12:43:34;;;;;;;;;;;;;;;15.64;46.97;101077.75;5036191;28;1024;-51